sensor_id;sensor_type;location;lat;lon;timestamp;temperature;humidity
8858;DHT22;4465;50.904;4.696;2022-07-31T00:02:06;21.20;94.00
8858;DHT22;4465;50.904;4.696;2022-07-31T00:04:33;21.10;94.00
8858;DHT22;4465;50.904;4.696;2022-07-31T00:06:59;21.10;94.00
8858;DHT22;4465;50.904;4.696;2022-07-31T00:09:27;21.10;94.00
8858;DHT22;4465;50.904;4.696;2022-07-31T00:11:54;21.10;94.20
8858;DHT22;4465;50.904;4.696;2022-07-31T00:14:20;21.00;94.10
8858;DHT22;4465;50.904;4.696;2022-07-31T00:16:47;21.00;94.30
8858;DHT22;4465;50.904;4.696;2022-07-31T00:19:13;20.90;94.50
8858;DHT22;4465;50.904;4.696;2022-07-31T00:21:39;20.90;94.70
8858;DHT22;4465;50.904;4.696;2022-07-31T00:24:05;20.90;94.40
8858;DHT22;4465;50.904;4.696;2022-07-31T00:26:31;20.80;94.20
8858;DHT22;4465;50.904;4.696;2022-07-31T00:28:57;20.80;94.30
8858;DHT22;4465;50.904;4.696;2022-07-31T00:31:23;20.80;94.70
8858;DHT22;4465;50.904;4.696;2022-07-31T00:33:49;20.80;94.50
8858;DHT22;4465;50.904;4.696;2022-07-31T00:36:15;20.70;94.80
8858;DHT22;4465;50.904;4.696;2022-07-31T00:38:41;20.70;94.80
8858;DHT22;4465;50.904;4.696;2022-07-31T00:41:07;20.60;95.00
8858;DHT22;4465;50.904;4.696;2022-07-31T00:43:36;20.60;94.90
8858;DHT22;4465;50.904;4.696;2022-07-31T00:46:02;20.60;95.00
8858;DHT22;4465;50.904;4.696;2022-07-31T00:48:28;20.50;94.90
8858;DHT22;4465;50.904;4.696;2022-07-31T00:50:57;20.50;95.00
8858;DHT22;4465;50.904;4.696;2022-07-31T00:53:23;20.50;95.10
8858;DHT22;4465;50.904;4.696;2022-07-31T00:55:50;20.50;95.20
8858;DHT22;4465;50.904;4.696;2022-07-31T00:58:16;20.40;95.50
8858;DHT22;4465;50.904;4.696;2022-07-31T01:00:43;20.40;95.10
8858;DHT22;4465;50.904;4.696;2022-07-31T01:03:09;20.40;95.50
8858;DHT22;4465;50.904;4.696;2022-07-31T01:05:36;20.40;95.50
8858;DHT22;4465;50.904;4.696;2022-07-31T01:08:04;20.40;95.40
8858;DHT22;4465;50.904;4.696;2022-07-31T01:11:01;20.40;95.50
8858;DHT22;4465;50.904;4.696;2022-07-31T01:13:32;20.30;95.70
8858;DHT22;4465;50.904;4.696;2022-07-31T01:16:04;20.30;95.50
8858;DHT22;4465;50.904;4.696;2022-07-31T01:18:35;20.30;95.50
8858;DHT22;4465;50.904;4.696;2022-07-31T01:21:07;20.30;95.70
8858;DHT22;4465;50.904;4.696;2022-07-31T01:26:23;20.20;95.70
8858;DHT22;4465;50.904;4.696;2022-07-31T01:32:00;20.10;96.10
8858;DHT22;4465;50.904;4.696;2022-07-31T01:34:56;20.10;95.90
8858;DHT22;4465;50.904;4.696;2022-07-31T01:37:35;20.00;96.20
8858;DHT22;4465;50.904;4.696;2022-07-31T01:40:13;20.00;96.20
8858;DHT22;4465;50.904;4.696;2022-07-31T01:42:45;20.00;96.50
8858;DHT22;4465;50.904;4.696;2022-07-31T01:45:14;19.90;96.70
8858;DHT22;4465;50.904;4.696;2022-07-31T01:47:43;19.90;96.70
8858;DHT22;4465;50.904;4.696;2022-07-31T01:50:10;19.80;97.00
8858;DHT22;4465;50.904;4.696;2022-07-31T01:52:39;19.80;97.10
8858;DHT22;4465;50.904;4.696;2022-07-31T01:55:08;19.80;97.00
8858;DHT22;4465;50.904;4.696;2022-07-31T01:57:36;19.80;96.80
8858;DHT22;4465;50.904;4.696;2022-07-31T02:00:06;19.80;97.20
8858;DHT22;4465;50.904;4.696;2022-07-31T02:02:33;19.80;97.00
8858;DHT22;4465;50.904;4.696;2022-07-31T02:05:02;19.80;97.10
8858;DHT22;4465;50.904;4.696;2022-07-31T02:07:36;19.70;97.40
8858;DHT22;4465;50.904;4.696;2022-07-31T02:10:11;19.80;97.30
8858;DHT22;4465;50.904;4.696;2022-07-31T02:12:41;19.70;97.30
8858;DHT22;4465;50.904;4.696;2022-07-31T02:15:11;19.70;97.20
8858;DHT22;4465;50.904;4.696;2022-07-31T02:17:40;19.70;97.30
8858;DHT22;4465;50.904;4.696;2022-07-31T02:20:09;19.70;97.50
8858;DHT22;4465;50.904;4.696;2022-07-31T02:22:38;19.70;97.40
8858;DHT22;4465;50.904;4.696;2022-07-31T02:25:05;19.70;97.90
8858;DHT22;4465;50.904;4.696;2022-07-31T02:27:32;19.70;97.90
8858;DHT22;4465;50.904;4.696;2022-07-31T02:30:03;19.70;97.90
8858;DHT22;4465;50.904;4.696;2022-07-31T02:32:32;19.60;98.40
8858;DHT22;4465;50.904;4.696;2022-07-31T02:35:01;19.60;98.30
8858;DHT22;4465;50.904;4.696;2022-07-31T02:37:30;19.60;98.20
8858;DHT22;4465;50.904;4.696;2022-07-31T02:39:59;19.60;98.30
8858;DHT22;4465;50.904;4.696;2022-07-31T02:42:28;19.60;98.30
8858;DHT22;4465;50.904;4.696;2022-07-31T02:44:55;19.60;98.60
8858;DHT22;4465;50.904;4.696;2022-07-31T02:47:25;19.60;98.30
8858;DHT22;4465;50.904;4.696;2022-07-31T02:49:51;19.60;98.80
8858;DHT22;4465;50.904;4.696;2022-07-31T02:52:20;19.50;98.90
8858;DHT22;4465;50.904;4.696;2022-07-31T02:54:49;19.50;98.60
8858;DHT22;4465;50.904;4.696;2022-07-31T02:57:20;19.50;99.00
8858;DHT22;4465;50.904;4.696;2022-07-31T02:59:46;19.50;99.00
8858;DHT22;4465;50.904;4.696;2022-07-31T03:02:12;19.50;99.00
8858;DHT22;4465;50.904;4.696;2022-07-31T03:04:38;19.50;99.00
8858;DHT22;4465;50.904;4.696;2022-07-31T03:07:04;19.40;99.10
8858;DHT22;4465;50.904;4.696;2022-07-31T03:09:30;19.40;99.20
8858;DHT22;4465;50.904;4.696;2022-07-31T03:11:59;19.40;99.80
8858;DHT22;4465;50.904;4.696;2022-07-31T03:14:27;19.40;99.80
8858;DHT22;4465;50.904;4.696;2022-07-31T03:16:55;19.40;99.70
8858;DHT22;4465;50.904;4.696;2022-07-31T03:19:26;19.40;99.80
8858;DHT22;4465;50.904;4.696;2022-07-31T03:21:53;19.40;99.80
8858;DHT22;4465;50.904;4.696;2022-07-31T03:24:21;19.40;99.90
8858;DHT22;4465;50.904;4.696;2022-07-31T03:26:47;19.40;99.90
8858;DHT22;4465;50.904;4.696;2022-07-31T03:29:13;19.30;99.90
8858;DHT22;4465;50.904;4.696;2022-07-31T03:31:42;19.40;99.90
8858;DHT22;4465;50.904;4.696;2022-07-31T03:34:10;19.40;99.90
8858;DHT22;4465;50.904;4.696;2022-07-31T03:36:38;19.40;99.90
8858;DHT22;4465;50.904;4.696;2022-07-31T03:39:04;19.40;99.90
8858;DHT22;4465;50.904;4.696;2022-07-31T03:41:30;19.40;99.90
8858;DHT22;4465;50.904;4.696;2022-07-31T03:43:59;19.40;99.90
8858;DHT22;4465;50.904;4.696;2022-07-31T03:46:26;19.40;99.90
8858;DHT22;4465;50.904;4.696;2022-07-31T03:48:53;19.30;99.90
8858;DHT22;4465;50.904;4.696;2022-07-31T03:51:19;19.40;99.90
8858;DHT22;4465;50.904;4.696;2022-07-31T03:53:47;19.30;99.90
8858;DHT22;4465;50.904;4.696;2022-07-31T03:56:14;19.30;99.90
8858;DHT22;4465;50.904;4.696;2022-07-31T03:58:42;19.30;99.90
8858;DHT22;4465;50.904;4.696;2022-07-31T04:01:10;19.30;99.90
8858;DHT22;4465;50.904;4.696;2022-07-31T04:03:36;19.30;99.90
8858;DHT22;4465;50.904;4.696;2022-07-31T04:06:02;19.30;99.90
8858;DHT22;4465;50.904;4.696;2022-07-31T04:08:29;19.30;99.90
8858;DHT22;4465;50.904;4.696;2022-07-31T04:10:55;19.30;99.90
8858;DHT22;4465;50.904;4.696;2022-07-31T04:13:23;19.30;99.90
8858;DHT22;4465;50.904;4.696;2022-07-31T04:15:50;19.30;99.90
8858;DHT22;4465;50.904;4.696;2022-07-31T04:18:16;19.30;99.90
8858;DHT22;4465;50.904;4.696;2022-07-31T04:20:42;19.30;99.90
8858;DHT22;4465;50.904;4.696;2022-07-31T04:23:08;19.30;99.90
8858;DHT22;4465;50.904;4.696;2022-07-31T04:25:34;19.20;99.90
8858;DHT22;4465;50.904;4.696;2022-07-31T04:28:00;19.20;99.90
8858;DHT22;4465;50.904;4.696;2022-07-31T04:30:26;19.20;99.90
8858;DHT22;4465;50.904;4.696;2022-07-31T04:32:55;19.20;99.90
8858;DHT22;4465;50.904;4.696;2022-07-31T04:35:24;19.20;99.90
8858;DHT22;4465;50.904;4.696;2022-07-31T04:37:50;19.20;99.90
8858;DHT22;4465;50.904;4.696;2022-07-31T04:40:16;19.20;99.90
8858;DHT22;4465;50.904;4.696;2022-07-31T04:42:44;19.20;99.90
8858;DHT22;4465;50.904;4.696;2022-07-31T04:45:11;19.20;99.90
8858;DHT22;4465;50.904;4.696;2022-07-31T04:47:37;19.30;99.90
8858;DHT22;4465;50.904;4.696;2022-07-31T04:50:06;19.20;99.90
8858;DHT22;4465;50.904;4.696;2022-07-31T04:52:32;19.20;99.90
8858;DHT22;4465;50.904;4.696;2022-07-31T04:55:00;19.30;99.90
8858;DHT22;4465;50.904;4.696;2022-07-31T04:57:26;19.30;99.90
8858;DHT22;4465;50.904;4.696;2022-07-31T04:59:52;19.30;99.90
8858;DHT22;4465;50.904;4.696;2022-07-31T05:02:18;19.30;99.90
8858;DHT22;4465;50.904;4.696;2022-07-31T05:04:47;19.30;99.90
8858;DHT22;4465;50.904;4.696;2022-07-31T05:07:13;19.30;99.90
8858;DHT22;4465;50.904;4.696;2022-07-31T05:09:39;19.30;99.90
8858;DHT22;4465;50.904;4.696;2022-07-31T05:12:04;19.30;99.90
8858;DHT22;4465;50.904;4.696;2022-07-31T05:14:30;19.30;99.90
8858;DHT22;4465;50.904;4.696;2022-07-31T05:16:56;19.30;99.90
8858;DHT22;4465;50.904;4.696;2022-07-31T05:19:25;19.30;99.90
8858;DHT22;4465;50.904;4.696;2022-07-31T05:21:54;19.30;99.90
8858;DHT22;4465;50.904;4.696;2022-07-31T05:24:24;19.30;99.90
8858;DHT22;4465;50.904;4.696;2022-07-31T05:26:50;19.30;99.90
8858;DHT22;4465;50.904;4.696;2022-07-31T05:29:19;19.30;99.90
8858;DHT22;4465;50.904;4.696;2022-07-31T05:31:45;19.30;99.90
8858;DHT22;4465;50.904;4.696;2022-07-31T05:34:11;19.40;99.90
8858;DHT22;4465;50.904;4.696;2022-07-31T05:36:40;19.40;99.90
8858;DHT22;4465;50.904;4.696;2022-07-31T05:39:06;19.40;99.90
8858;DHT22;4465;50.904;4.696;2022-07-31T05:41:35;19.40;99.90
8858;DHT22;4465;50.904;4.696;2022-07-31T05:44:01;19.40;99.90
8858;DHT22;4465;50.904;4.696;2022-07-31T05:46:27;19.40;99.90
8858;DHT22;4465;50.904;4.696;2022-07-31T05:48:56;19.40;99.90
8858;DHT22;4465;50.904;4.696;2022-07-31T05:51:21;19.40;99.90
8858;DHT22;4465;50.904;4.696;2022-07-31T05:53:47;19.40;99.90
8858;DHT22;4465;50.904;4.696;2022-07-31T05:56:13;19.40;99.90
8858;DHT22;4465;50.904;4.696;2022-07-31T05:58:39;19.50;99.90
8858;DHT22;4465;50.904;4.696;2022-07-31T06:01:09;19.50;99.90
8858;DHT22;4465;50.904;4.696;2022-07-31T06:03:35;19.50;99.90
8858;DHT22;4465;50.904;4.696;2022-07-31T06:06:04;19.50;99.90
8858;DHT22;4465;50.904;4.696;2022-07-31T06:08:31;19.50;99.90
8858;DHT22;4465;50.904;4.696;2022-07-31T06:10:58;19.60;99.90
8858;DHT22;4465;50.904;4.696;2022-07-31T06:13:25;19.60;99.90
8858;DHT22;4465;50.904;4.696;2022-07-31T06:15:55;19.60;99.90
8858;DHT22;4465;50.904;4.696;2022-07-31T06:18:21;19.60;99.90
8858;DHT22;4465;50.904;4.696;2022-07-31T06:20:48;19.70;99.90
8858;DHT22;4465;50.904;4.696;2022-07-31T06:23:14;19.70;99.90
8858;DHT22;4465;50.904;4.696;2022-07-31T06:25:40;19.70;99.90
8858;DHT22;4465;50.904;4.696;2022-07-31T06:28:06;19.70;99.90
8858;DHT22;4465;50.904;4.696;2022-07-31T06:30:33;19.70;99.90
8858;DHT22;4465;50.904;4.696;2022-07-31T06:32:59;19.80;99.90
8858;DHT22;4465;50.904;4.696;2022-07-31T06:35:25;19.80;99.90
8858;DHT22;4465;50.904;4.696;2022-07-31T06:37:56;19.80;99.90
8858;DHT22;4465;50.904;4.696;2022-07-31T06:40:25;19.90;99.90
8858;DHT22;4465;50.904;4.696;2022-07-31T06:42:52;19.90;99.90
8858;DHT22;4465;50.904;4.696;2022-07-31T06:45:21;20.00;99.90
8858;DHT22;4465;50.904;4.696;2022-07-31T06:47:47;20.00;99.90
8858;DHT22;4465;50.904;4.696;2022-07-31T06:50:14;20.00;99.90
8858;DHT22;4465;50.904;4.696;2022-07-31T06:52:41;20.00;99.90
8858;DHT22;4465;50.904;4.696;2022-07-31T06:55:07;20.10;99.90
8858;DHT22;4465;50.904;4.696;2022-07-31T06:57:38;20.20;99.90
8858;DHT22;4465;50.904;4.696;2022-07-31T07:00:05;20.20;99.90
8858;DHT22;4465;50.904;4.696;2022-07-31T07:02:36;20.30;99.90
8858;DHT22;4465;50.904;4.696;2022-07-31T07:05:03;20.40;99.90
8858;DHT22;4465;50.904;4.696;2022-07-31T07:07:29;20.40;99.90
8858;DHT22;4465;50.904;4.696;2022-07-31T07:10:02;20.50;99.90
8858;DHT22;4465;50.904;4.696;2022-07-31T07:12:28;20.50;99.90
8858;DHT22;4465;50.904;4.696;2022-07-31T07:14:54;20.50;99.90
8858;DHT22;4465;50.904;4.696;2022-07-31T07:17:20;20.50;99.90
8858;DHT22;4465;50.904;4.696;2022-07-31T07:19:49;20.50;99.90
8858;DHT22;4465;50.904;4.696;2022-07-31T07:22:15;20.60;99.90
8858;DHT22;4465;50.904;4.696;2022-07-31T07:24:40;20.60;99.90
8858;DHT22;4465;50.904;4.696;2022-07-31T07:27:07;20.60;99.90
8858;DHT22;4465;50.904;4.696;2022-07-31T07:29:35;20.70;99.90
8858;DHT22;4465;50.904;4.696;2022-07-31T07:32:01;20.70;99.90
8858;DHT22;4465;50.904;4.696;2022-07-31T07:34:27;20.80;99.90
8858;DHT22;4465;50.904;4.696;2022-07-31T07:36:56;20.80;99.90
8858;DHT22;4465;50.904;4.696;2022-07-31T07:39:22;20.90;99.90
8858;DHT22;4465;50.904;4.696;2022-07-31T07:41:48;20.90;99.90
8858;DHT22;4465;50.904;4.696;2022-07-31T07:44:14;20.90;99.90
8858;DHT22;4465;50.904;4.696;2022-07-31T07:46:41;21.00;99.90
8858;DHT22;4465;50.904;4.696;2022-07-31T07:49:07;21.10;99.90
8858;DHT22;4465;50.904;4.696;2022-07-31T07:51:33;21.10;99.90
8858;DHT22;4465;50.904;4.696;2022-07-31T07:53:59;21.30;99.90
8858;DHT22;4465;50.904;4.696;2022-07-31T07:56:26;21.40;99.90
8858;DHT22;4465;50.904;4.696;2022-07-31T07:58:52;21.40;99.90
8858;DHT22;4465;50.904;4.696;2022-07-31T08:01:20;21.50;99.90
8858;DHT22;4465;50.904;4.696;2022-07-31T08:03:47;21.60;99.90
8858;DHT22;4465;50.904;4.696;2022-07-31T08:06:13;21.70;99.90
8858;DHT22;4465;50.904;4.696;2022-07-31T08:08:41;21.80;99.90
8858;DHT22;4465;50.904;4.696;2022-07-31T08:11:08;21.90;99.90
8858;DHT22;4465;50.904;4.696;2022-07-31T08:13:34;22.00;99.90
8858;DHT22;4465;50.904;4.696;2022-07-31T08:16:03;22.00;99.90
8858;DHT22;4465;50.904;4.696;2022-07-31T08:18:29;22.10;99.90
8858;DHT22;4465;50.904;4.696;2022-07-31T08:20:58;22.10;99.90
8858;DHT22;4465;50.904;4.696;2022-07-31T08:23:24;22.10;99.90
8858;DHT22;4465;50.904;4.696;2022-07-31T08:25:50;22.10;99.90
8858;DHT22;4465;50.904;4.696;2022-07-31T08:28:16;22.20;99.90
8858;DHT22;4465;50.904;4.696;2022-07-31T08:30:43;22.20;99.90
8858;DHT22;4465;50.904;4.696;2022-07-31T08:33:09;22.20;99.90
8858;DHT22;4465;50.904;4.696;2022-07-31T08:35:35;22.30;99.90
8858;DHT22;4465;50.904;4.696;2022-07-31T08:38:02;22.30;99.90
8858;DHT22;4465;50.904;4.696;2022-07-31T08:40:31;22.30;99.90
8858;DHT22;4465;50.904;4.696;2022-07-31T08:42:57;22.40;99.90
8858;DHT22;4465;50.904;4.696;2022-07-31T08:45:23;22.50;99.90
8858;DHT22;4465;50.904;4.696;2022-07-31T08:47:50;22.60;99.90
8858;DHT22;4465;50.904;4.696;2022-07-31T08:50:19;22.80;99.90
8858;DHT22;4465;50.904;4.696;2022-07-31T08:52:46;22.80;99.90
8858;DHT22;4465;50.904;4.696;2022-07-31T08:55:14;23.00;99.90
8858;DHT22;4465;50.904;4.696;2022-07-31T08:57:40;23.10;99.90
8858;DHT22;4465;50.904;4.696;2022-07-31T09:00:09;23.30;99.90
8858;DHT22;4465;50.904;4.696;2022-07-31T09:02:39;23.40;99.90
8858;DHT22;4465;50.904;4.696;2022-07-31T09:05:05;23.50;99.90
8858;DHT22;4465;50.904;4.696;2022-07-31T09:07:34;23.60;99.90
8858;DHT22;4465;50.904;4.696;2022-07-31T09:10:02;23.60;99.90
8858;DHT22;4465;50.904;4.696;2022-07-31T09:12:32;23.60;99.90
8858;DHT22;4465;50.904;4.696;2022-07-31T09:14:58;23.60;99.90
8858;DHT22;4465;50.904;4.696;2022-07-31T09:17:34;23.60;99.90
8858;DHT22;4465;50.904;4.696;2022-07-31T09:20:02;23.70;99.90
8858;DHT22;4465;50.904;4.696;2022-07-31T09:22:31;23.80;99.90
8858;DHT22;4465;50.904;4.696;2022-07-31T09:25:11;23.80;99.90
8858;DHT22;4465;50.904;4.696;2022-07-31T09:27:38;23.90;99.90
8858;DHT22;4465;50.904;4.696;2022-07-31T09:30:07;23.90;99.90
8858;DHT22;4465;50.904;4.696;2022-07-31T09:32:34;24.00;99.90
8858;DHT22;4465;50.904;4.696;2022-07-31T09:35:11;24.00;99.90
8858;DHT22;4465;50.904;4.696;2022-07-31T09:37:38;24.10;99.90
8858;DHT22;4465;50.904;4.696;2022-07-31T09:40:06;24.10;99.90
8858;DHT22;4465;50.904;4.696;2022-07-31T09:42:40;24.10;99.90
8858;DHT22;4465;50.904;4.696;2022-07-31T09:45:21;24.10;99.90
8858;DHT22;4465;50.904;4.696;2022-07-31T09:48:04;24.10;99.90
8858;DHT22;4465;50.904;4.696;2022-07-31T09:50:31;24.10;99.90
8858;DHT22;4465;50.904;4.696;2022-07-31T09:53:00;24.10;99.90
8858;DHT22;4465;50.904;4.696;2022-07-31T09:55:27;24.20;99.90
8858;DHT22;4465;50.904;4.696;2022-07-31T09:57:58;24.20;99.90
8858;DHT22;4465;50.904;4.696;2022-07-31T10:00:27;24.20;99.90
8858;DHT22;4465;50.904;4.696;2022-07-31T10:02:56;24.20;99.90
8858;DHT22;4465;50.904;4.696;2022-07-31T10:05:24;24.20;99.90
8858;DHT22;4465;50.904;4.696;2022-07-31T10:07:53;24.30;99.90
8858;DHT22;4465;50.904;4.696;2022-07-31T10:10:21;24.30;99.90
8858;DHT22;4465;50.904;4.696;2022-07-31T10:12:51;24.30;99.90
8858;DHT22;4465;50.904;4.696;2022-07-31T10:15:19;24.40;99.90
8858;DHT22;4465;50.904;4.696;2022-07-31T10:17:49;24.50;99.90
8858;DHT22;4465;50.904;4.696;2022-07-31T10:20:18;24.60;99.90
8858;DHT22;4465;50.904;4.696;2022-07-31T10:23:00;24.70;99.90
8858;DHT22;4465;50.904;4.696;2022-07-31T10:25:29;24.80;99.90
8858;DHT22;4465;50.904;4.696;2022-07-31T10:27:57;24.90;99.90
8858;DHT22;4465;50.904;4.696;2022-07-31T10:30:24;24.90;99.90
8858;DHT22;4465;50.904;4.696;2022-07-31T10:32:50;25.00;99.90
8858;DHT22;4465;50.904;4.696;2022-07-31T10:35:19;25.00;99.90
8858;DHT22;4465;50.904;4.696;2022-07-31T10:41:09;25.20;99.90
8858;DHT22;4465;50.904;4.696;2022-07-31T10:43:47;25.20;99.90
8858;DHT22;4465;50.904;4.696;2022-07-31T10:46:29;25.20;99.90
8858;DHT22;4465;50.904;4.696;2022-07-31T10:48:56;25.20;99.90
8858;DHT22;4465;50.904;4.696;2022-07-31T10:51:23;25.20;99.90
8858;DHT22;4465;50.904;4.696;2022-07-31T10:53:56;25.30;99.90
8858;DHT22;4465;50.904;4.696;2022-07-31T10:56:22;25.30;99.90
8858;DHT22;4465;50.904;4.696;2022-07-31T10:58:56;25.20;99.90
8858;DHT22;4465;50.904;4.696;2022-07-31T11:01:23;25.10;99.90
8858;DHT22;4465;50.904;4.696;2022-07-31T11:03:59;25.10;99.90
8858;DHT22;4465;50.904;4.696;2022-07-31T11:06:40;25.00;99.90
8858;DHT22;4465;50.904;4.696;2022-07-31T11:09:08;25.00;99.90
8858;DHT22;4465;50.904;4.696;2022-07-31T11:11:36;25.00;99.90
8858;DHT22;4465;50.904;4.696;2022-07-31T11:14:03;25.10;99.90
8858;DHT22;4465;50.904;4.696;2022-07-31T11:16:30;25.10;99.90
8858;DHT22;4465;50.904;4.696;2022-07-31T11:19:01;25.20;99.90
8858;DHT22;4465;50.904;4.696;2022-07-31T11:21:36;25.20;99.90
8858;DHT22;4465;50.904;4.696;2022-07-31T11:24:12;25.40;99.90
8858;DHT22;4465;50.904;4.696;2022-07-31T11:31:54;27.10;99.90
8858;DHT22;4465;50.904;4.696;2022-07-31T11:34:22;27.50;99.90
8858;DHT22;4465;50.904;4.696;2022-07-31T11:36:49;27.70;99.90
8858;DHT22;4465;50.904;4.696;2022-07-31T11:39:17;27.70;99.90
8858;DHT22;4465;50.904;4.696;2022-07-31T11:41:43;27.60;99.90
8858;DHT22;4465;50.904;4.696;2022-07-31T11:44:11;27.60;99.90
8858;DHT22;4465;50.904;4.696;2022-07-31T11:46:37;27.40;99.90
8858;DHT22;4465;50.904;4.696;2022-07-31T11:49:04;27.30;99.90
8858;DHT22;4465;50.904;4.696;2022-07-31T11:51:30;27.10;99.90
8858;DHT22;4465;50.904;4.696;2022-07-31T11:53:57;26.90;99.90
8858;DHT22;4465;50.904;4.696;2022-07-31T11:56:25;26.90;99.90
8858;DHT22;4465;50.904;4.696;2022-07-31T11:58:53;26.90;99.90
8858;DHT22;4465;50.904;4.696;2022-07-31T12:01:24;26.80;99.90
8858;DHT22;4465;50.904;4.696;2022-07-31T12:03:56;26.80;99.90
8858;DHT22;4465;50.904;4.696;2022-07-31T12:06:25;26.80;99.90
8858;DHT22;4465;50.904;4.696;2022-07-31T12:08:53;26.70;99.90
8858;DHT22;4465;50.904;4.696;2022-07-31T12:11:20;26.60;99.90
8858;DHT22;4465;50.904;4.696;2022-07-31T12:13:49;26.50;99.90
8858;DHT22;4465;50.904;4.696;2022-07-31T12:16:16;26.40;99.90
8858;DHT22;4465;50.904;4.696;2022-07-31T12:18:54;26.40;99.90
8858;DHT22;4465;50.904;4.696;2022-07-31T12:21:49;26.70;99.90
8858;DHT22;4465;50.904;4.696;2022-07-31T12:24:17;27.20;99.90
8858;DHT22;4465;50.904;4.696;2022-07-31T12:26:55;27.60;99.90
8858;DHT22;4465;50.904;4.696;2022-07-31T12:29:34;28.00;99.90
8858;DHT22;4465;50.904;4.696;2022-07-31T12:32:00;28.60;99.90
8858;DHT22;4465;50.904;4.696;2022-07-31T12:34:35;28.90;99.90
8858;DHT22;4465;50.904;4.696;2022-07-31T12:37:16;29.00;99.50
8858;DHT22;4465;50.904;4.696;2022-07-31T12:39:56;29.10;99.90
8858;DHT22;4465;50.904;4.696;2022-07-31T12:44:52;29.30;99.30
8858;DHT22;4465;50.904;4.696;2022-07-31T12:47:32;29.30;98.30
8858;DHT22;4465;50.904;4.696;2022-07-31T12:50:00;28.90;98.40
8858;DHT22;4465;50.904;4.696;2022-07-31T12:52:27;28.70;98.60
8858;DHT22;4465;50.904;4.696;2022-07-31T12:54:57;28.40;98.50
8858;DHT22;4465;50.904;4.696;2022-07-31T12:57:23;28.20;98.60
8858;DHT22;4465;50.904;4.696;2022-07-31T12:59:49;28.00;98.60
8858;DHT22;4465;50.904;4.696;2022-07-31T13:02:17;27.70;99.00
8858;DHT22;4465;50.904;4.696;2022-07-31T13:04:43;27.60;99.00
8858;DHT22;4465;50.904;4.696;2022-07-31T13:07:10;27.40;98.90
8858;DHT22;4465;50.904;4.696;2022-07-31T13:09:36;27.20;99.00
8858;DHT22;4465;50.904;4.696;2022-07-31T13:12:02;27.10;99.20
8858;DHT22;4465;50.904;4.696;2022-07-31T13:14:28;26.90;99.60
8858;DHT22;4465;50.904;4.696;2022-07-31T13:16:55;26.80;99.60
8858;DHT22;4465;50.904;4.696;2022-07-31T13:19:22;26.70;99.90
8858;DHT22;4465;50.904;4.696;2022-07-31T13:21:48;26.50;99.90
8858;DHT22;4465;50.904;4.696;2022-07-31T13:24:14;26.40;99.90
8858;DHT22;4465;50.904;4.696;2022-07-31T13:26:41;26.40;99.90
8858;DHT22;4465;50.904;4.696;2022-07-31T13:29:09;26.40;99.90
8858;DHT22;4465;50.904;4.696;2022-07-31T13:31:36;26.40;99.90
8858;DHT22;4465;50.904;4.696;2022-07-31T13:34:02;26.40;99.90
8858;DHT22;4465;50.904;4.696;2022-07-31T13:36:30;26.30;99.90
8858;DHT22;4465;50.904;4.696;2022-07-31T13:39:01;26.20;99.90
8858;DHT22;4465;50.904;4.696;2022-07-31T13:41:27;26.10;99.90
8858;DHT22;4465;50.904;4.696;2022-07-31T13:43:56;26.10;99.90
8858;DHT22;4465;50.904;4.696;2022-07-31T13:46:24;26.00;99.90
8858;DHT22;4465;50.904;4.696;2022-07-31T13:48:52;25.90;99.90
8858;DHT22;4465;50.904;4.696;2022-07-31T13:51:19;25.90;99.90
8858;DHT22;4465;50.904;4.696;2022-07-31T13:53:45;25.90;99.90
8858;DHT22;4465;50.904;4.696;2022-07-31T13:56:13;25.90;99.90
8858;DHT22;4465;50.904;4.696;2022-07-31T13:58:40;26.00;99.90
8858;DHT22;4465;50.904;4.696;2022-07-31T14:01:08;26.00;99.90
8858;DHT22;4465;50.904;4.696;2022-07-31T14:03:34;26.10;99.90
8858;DHT22;4465;50.904;4.696;2022-07-31T14:06:00;26.10;99.90
8858;DHT22;4465;50.904;4.696;2022-07-31T14:08:26;26.10;99.90
8858;DHT22;4465;50.904;4.696;2022-07-31T14:10:52;26.20;99.90
8858;DHT22;4465;50.904;4.696;2022-07-31T14:13:21;26.20;99.90
8858;DHT22;4465;50.904;4.696;2022-07-31T14:15:48;26.10;99.90
8858;DHT22;4465;50.904;4.696;2022-07-31T14:18:14;26.10;99.90
8858;DHT22;4465;50.904;4.696;2022-07-31T14:20:40;26.10;99.90
8858;DHT22;4465;50.904;4.696;2022-07-31T14:23:07;26.00;99.90
8858;DHT22;4465;50.904;4.696;2022-07-31T14:25:38;26.00;99.90
8858;DHT22;4465;50.904;4.696;2022-07-31T14:28:05;26.00;99.90
8858;DHT22;4465;50.904;4.696;2022-07-31T14:30:32;26.00;99.90
8858;DHT22;4465;50.904;4.696;2022-07-31T14:33:00;25.90;99.90
8858;DHT22;4465;50.904;4.696;2022-07-31T14:35:26;25.90;99.90
8858;DHT22;4465;50.904;4.696;2022-07-31T14:37:52;25.90;99.90
8858;DHT22;4465;50.904;4.696;2022-07-31T14:40:19;25.90;99.90
8858;DHT22;4465;50.904;4.696;2022-07-31T14:42:50;25.90;99.90
8858;DHT22;4465;50.904;4.696;2022-07-31T14:45:16;25.80;99.90
8858;DHT22;4465;50.904;4.696;2022-07-31T14:47:44;25.70;99.90
8858;DHT22;4465;50.904;4.696;2022-07-31T14:50:11;25.70;99.90
8858;DHT22;4465;50.904;4.696;2022-07-31T14:52:37;25.70;99.90
8858;DHT22;4465;50.904;4.696;2022-07-31T14:55:03;25.70;99.90
8858;DHT22;4465;50.904;4.696;2022-07-31T14:57:30;25.70;99.90
8858;DHT22;4465;50.904;4.696;2022-07-31T15:00:00;25.70;99.90
8858;DHT22;4465;50.904;4.696;2022-07-31T15:02:27;25.70;99.90
8858;DHT22;4465;50.904;4.696;2022-07-31T15:04:57;25.70;99.90
8858;DHT22;4465;50.904;4.696;2022-07-31T15:07:25;25.70;99.90
8858;DHT22;4465;50.904;4.696;2022-07-31T15:09:51;25.60;99.90
8858;DHT22;4465;50.904;4.696;2022-07-31T15:12:17;25.60;99.90
8858;DHT22;4465;50.904;4.696;2022-07-31T15:14:46;25.60;99.90
8858;DHT22;4465;50.904;4.696;2022-07-31T15:17:15;25.50;99.90
8858;DHT22;4465;50.904;4.696;2022-07-31T15:19:41;25.40;99.90
8858;DHT22;4465;50.904;4.696;2022-07-31T15:22:14;25.40;99.90
8858;DHT22;4465;50.904;4.696;2022-07-31T15:24:47;25.40;99.90
8858;DHT22;4465;50.904;4.696;2022-07-31T15:27:14;25.40;99.90
8858;DHT22;4465;50.904;4.696;2022-07-31T15:29:42;25.40;99.90
8858;DHT22;4465;50.904;4.696;2022-07-31T15:32:09;25.40;99.90
8858;DHT22;4465;50.904;4.696;2022-07-31T15:34:40;25.30;99.90
8858;DHT22;4465;50.904;4.696;2022-07-31T15:37:09;25.30;99.90
8858;DHT22;4465;50.904;4.696;2022-07-31T15:39:36;25.20;99.90
8858;DHT22;4465;50.904;4.696;2022-07-31T15:42:05;25.20;99.90
8858;DHT22;4465;50.904;4.696;2022-07-31T15:44:31;25.20;99.90
8858;DHT22;4465;50.904;4.696;2022-07-31T15:46:57;25.10;99.90
8858;DHT22;4465;50.904;4.696;2022-07-31T15:49:24;25.10;99.90
8858;DHT22;4465;50.904;4.696;2022-07-31T15:51:52;25.10;99.90
8858;DHT22;4465;50.904;4.696;2022-07-31T15:54:18;25.10;99.90
8858;DHT22;4465;50.904;4.696;2022-07-31T15:56:44;25.10;99.90
8858;DHT22;4465;50.904;4.696;2022-07-31T15:59:11;25.00;99.90
8858;DHT22;4465;50.904;4.696;2022-07-31T16:01:40;25.00;99.90
8858;DHT22;4465;50.904;4.696;2022-07-31T16:04:06;25.00;99.90
8858;DHT22;4465;50.904;4.696;2022-07-31T16:06:33;25.00;99.90
8858;DHT22;4465;50.904;4.696;2022-07-31T16:08:59;25.00;99.90
8858;DHT22;4465;50.904;4.696;2022-07-31T16:11:24;24.90;99.90
8858;DHT22;4465;50.904;4.696;2022-07-31T16:13:51;24.90;99.90
8858;DHT22;4465;50.904;4.696;2022-07-31T16:16:17;24.80;99.90
8858;DHT22;4465;50.904;4.696;2022-07-31T16:18:43;24.80;99.90
8858;DHT22;4465;50.904;4.696;2022-07-31T16:21:09;24.80;99.90
8858;DHT22;4465;50.904;4.696;2022-07-31T16:23:35;24.80;99.90
8858;DHT22;4465;50.904;4.696;2022-07-31T16:26:01;24.80;99.90